createdAt,value
2018-07-26T00:00:27.051Z,66.68
2018-07-26T00:02:27.152Z,66.66
2018-07-26T00:03:27.272Z,66.82
2018-07-26T00:05:27.066Z,66.71
2018-07-26T00:06:27.225Z,66.68
2018-07-26T00:07:27.109Z,66.6
2018-07-26T00:08:27.103Z,66.96
2018-07-26T00:10:27.094Z,66.64
2018-07-26T00:11:27.031Z,66.66
2018-07-26T00:12:27.290Z,66.77
2018-07-26T00:13:26.919Z,66.64
2018-07-26T00:16:26.959Z,66.89
2018-07-26T00:17:27.008Z,66.81
2018-07-26T00:18:27.029Z,66.8
2018-07-26T00:19:27.025Z,66.65
2018-07-26T00:21:27.185Z,66.77
2018-07-26T00:22:26.872Z,66.73
2018-07-26T00:23:27.143Z,66.87
2018-07-26T00:24:27.158Z,66.85
2018-07-26T00:26:27.021Z,66.72
2018-07-26T00:27:27.102Z,66.86
2018-07-26T00:28:27.149Z,66.99
2018-07-26T00:29:26.964Z,66.59
2018-07-26T00:31:27.004Z,66.58
2018-07-26T00:33:26.972Z,66.81
2018-07-26T00:34:26.928Z,66.65
2018-07-26T00:36:27.095Z,66.73
2018-07-26T00:37:27.122Z,66.82
2018-07-26T00:38:27.190Z,66.73
2018-07-26T00:39:27.151Z,66.57
2018-07-26T00:41:27.521Z,66.57
2018-07-26T00:42:27.136Z,66.88
2018-07-26T00:43:26.987Z,66.58
2018-07-26T00:44:27.088Z,66.8
2018-07-26T00:47:26.978Z,66.75
2018-07-26T00:48:27.039Z,66.87
2018-07-26T00:49:27.017Z,66.83
2018-07-26T00:51:27.035Z,66.89
2018-07-26T00:52:27.216Z,66.99
2018-07-26T00:53:26.973Z,66.52
2018-07-26T00:54:27.193Z,66.78
2018-07-26T00:56:27.486Z,66.97
2018-07-26T00:57:27.117Z,66.83
2018-07-26T00:58:26.933Z,66.99
2018-07-26T00:59:27.249Z,66.62
2018-07-26T01:01:26.952Z,66.81
2018-07-26T01:02:26.942Z,66.83
2018-07-26T01:03:27.012Z,66.83
2018-07-26T01:04:26.997Z,66.93
2018-07-26T01:06:27.057Z,66.84
2018-07-26T01:07:27.064Z,66.89
2018-07-26T01:08:27.075Z,66.76
2018-07-26T01:09:27.139Z,66.76
2018-07-26T01:11:27.298Z,66.78
2018-07-26T01:13:26.997Z,66.76
2018-07-26T01:14:27.150Z,67.03
2018-07-26T01:15:27.002Z,66.84
2018-07-26T01:17:27.134Z,66.58
2018-07-26T01:18:26.947Z,66.84
2018-07-26T01:19:27.302Z,66.96
2018-07-26T01:20:27.015Z,66.95
2018-07-26T01:22:27.617Z,66.93
2018-07-26T01:23:26.996Z,66.92
2018-07-26T01:24:27.660Z,66.68
2018-07-26T01:25:26.908Z,66.94
2018-07-26T01:27:27.518Z,66.82
2018-07-26T01:28:26.935Z,66.9
2018-07-26T01:29:27.249Z,66.8
2018-07-26T01:30:26.971Z,66.9
2018-07-26T01:32:26.967Z,66.96
2018-07-26T01:34:26.973Z,66.92
2018-07-26T01:35:27.081Z,66.82
2018-07-26T01:36:27.090Z,66.81
2018-07-26T01:37:27.025Z,66.7
2018-07-26T01:40:27.017Z,66.83
2018-07-26T01:41:27.009Z,66.63
2018-07-26T01:42:27.238Z,66.78
2018-07-26T01:43:26.911Z,66.97
2018-07-26T01:45:27.232Z,66.71
2018-07-26T01:46:26.960Z,66.62
2018-07-26T01:47:26.929Z,66.9
2018-07-26T01:48:27.092Z,66.81
2018-07-26T01:51:27.200Z,66.8
2018-07-26T01:52:26.912Z,66.78
2018-07-26T01:53:26.970Z,67.02
2018-07-26T01:54:27.057Z,66.88
2018-07-26T01:56:27.090Z,66.62
2018-07-26T01:57:27.040Z,66.71
2018-07-26T01:58:27.116Z,66.87
2018-07-26T01:59:27.002Z,66.61
2018-07-26T02:01:26.973Z,66.6
2018-07-26T02:02:27.073Z,67.03
2018-07-26T02:03:26.978Z,66.95
2018-07-26T02:04:26.963Z,66.74
2018-07-26T02:07:26.991Z,66.99
2018-07-26T02:08:27.002Z,66.94
2018-07-26T02:09:26.953Z,66.9
2018-07-26T02:10:26.903Z,66.95
2018-07-26T02:12:26.955Z,66.83
2018-07-26T02:13:26.980Z,66.78
2018-07-26T02:14:27.140Z,66.87
2018-07-26T02:15:26.988Z,66.79
2018-07-26T02:18:27.454Z,66.78
2018-07-26T02:19:26.971Z,66.91
2018-07-26T02:20:26.987Z,66.68
2018-07-26T02:24:27.196Z,66.74
2018-07-26T02:25:26.966Z,66.81
2018-07-26T02:26:27.113Z,66.96
2018-07-26T02:27:27.321Z,66.83
2018-07-26T02:30:26.963Z,66.67
2018-07-26T02:31:27.231Z,66.82
2018-07-26T02:32:27.030Z,66.9
2018-07-26T02:33:27.066Z,66.61
2018-07-26T02:36:27.075Z,66.84
2018-07-26T02:37:26.973Z,66.83
2018-07-26T02:38:27.142Z,67.07
2018-07-26T02:39:27.023Z,66.78
2018-07-26T02:42:27.127Z,66.64
2018-07-26T02:43:27.069Z,66.62
2018-07-26T02:44:26.974Z,66.97
2018-07-26T02:45:27.082Z,66.86
2018-07-26T02:48:27.342Z,66.75
2018-07-26T02:49:27.171Z,66.78
2018-07-26T02:50:27.093Z,66.69
2018-07-26T02:51:27.170Z,66.63
2018-07-26T02:53:27.134Z,66.86
2018-07-26T02:54:27.183Z,66.88
2018-07-26T02:55:26.931Z,66.82
2018-07-26T02:56:27.175Z,66.67
2018-07-26T02:58:27.028Z,66.57
2018-07-26T02:59:27.101Z,66.93
2018-07-26T03:00:26.959Z,66.83
2018-07-26T03:01:27.149Z,66.63
2018-07-26T03:03:26.917Z,66.89
2018-07-26T03:04:51.340Z,66.95
2018-07-26T03:05:26.936Z,66.97
2018-07-26T03:06:27.009Z,66.81
2018-07-26T03:08:27.091Z,66.84
2018-07-26T03:09:27.013Z,66.69
2018-07-26T03:10:26.879Z,66.96
2018-07-26T03:11:26.916Z,66.68
2018-07-26T03:13:27.147Z,66.71
2018-07-26T03:14:27.063Z,66.77
2018-07-26T03:15:27.013Z,66.83
2018-07-26T03:16:26.793Z,66.81
2018-07-26T03:19:26.989Z,66.81
2018-07-26T03:20:26.935Z,66.57
2018-07-26T03:21:27.090Z,66.86
2018-07-26T03:22:26.994Z,66.64
2018-07-26T03:24:27.027Z,66.74
2018-07-26T03:25:26.996Z,66.57
2018-07-26T03:26:27.026Z,66.6
2018-07-26T03:27:26.903Z,66.93
2018-07-26T03:30:27.242Z,66.72
2018-07-26T03:31:27.046Z,66.5
2018-07-26T03:32:27.072Z,66.97
2018-07-26T03:33:27.048Z,66.75
2018-07-26T03:35:27.232Z,66.65
2018-07-26T03:36:27.191Z,66.81
2018-07-26T03:37:27.042Z,66.64
2018-07-26T03:38:27.035Z,66.83
2018-07-26T03:40:26.976Z,66.7
2018-07-26T03:41:27.226Z,66.98
2018-07-26T03:42:27.159Z,66.78
2018-07-26T03:43:27.098Z,66.92
2018-07-26T03:45:27.016Z,66.77
2018-07-26T03:46:27.199Z,66.77
2018-07-26T03:47:26.966Z,66.89
2018-07-26T03:48:27.103Z,66.65
2018-07-26T03:50:27.211Z,66.92
2018-07-26T03:52:26.859Z,66.85
2018-07-26T03:53:26.946Z,66.64
2018-07-26T03:54:26.977Z,66.72
2018-07-26T03:55:27.105Z,66.65
2018-07-26T03:57:27.213Z,66.82
2018-07-26T03:58:26.865Z,66.72
2018-07-26T03:59:26.951Z,66.75
2018-07-26T04:00:27.078Z,66.66
2018-07-26T04:04:27.043Z,66.72
2018-07-26T04:05:27.091Z,66.71
2018-07-26T04:06:27.028Z,66.72
2018-07-26T04:07:27.063Z,66.92
2018-07-26T04:09:26.948Z,66.73
2018-07-26T04:10:26.819Z,66.79
2018-07-26T04:11:26.848Z,66.65
2018-07-26T04:12:26.858Z,66.9
2018-07-26T04:15:27.110Z,66.68
2018-07-26T04:16:27.057Z,66.66
2018-07-26T04:18:26.896Z,66.75
2018-07-26T04:19:26.851Z,66.84
2018-07-26T04:20:27.033Z,66.69
2018-07-26T04:21:27.056Z,66.84
2018-07-26T04:23:27.033Z,66.78
2018-07-26T04:24:26.909Z,66.85
2018-07-26T04:25:27.070Z,66.6
2018-07-26T04:26:26.936Z,66.93
2018-07-26T04:28:26.829Z,66.94
2018-07-26T04:29:26.996Z,66.93
2018-07-26T04:30:27.043Z,66.98
2018-07-26T04:33:27.095Z,66.82
2018-07-26T04:34:27.032Z,66.88
2018-07-26T04:35:26.956Z,66.84
2018-07-26T04:36:26.899Z,66.7
2018-07-26T04:38:26.931Z,66.93
2018-07-26T04:39:26.993Z,66.78
2018-07-26T04:40:27.049Z,66.83
2018-07-26T04:41:26.961Z,66.67
2018-07-26T04:43:26.848Z,66.69
2018-07-26T04:44:26.981Z,66.98
2018-07-26T04:46:26.819Z,66.55
2018-07-26T04:48:26.902Z,66.74
2018-07-26T04:49:26.918Z,66.85
2018-07-26T04:50:26.965Z,66.97
2018-07-26T04:51:26.934Z,66.64
2018-07-26T04:53:26.949Z,66.65
2018-07-26T04:54:27.002Z,66.7
2018-07-26T04:55:26.774Z,66.62
2018-07-26T04:56:27.040Z,66.64
2018-07-26T04:58:26.947Z,66.87
2018-07-26T04:59:27.071Z,66.91
2018-07-26T05:00:27.054Z,66.62
2018-07-26T05:02:27.162Z,66.57
2018-07-26T05:04:26.830Z,66.59
2018-07-26T05:05:26.991Z,66.64
2018-07-26T05:06:26.944Z,66.63
2018-07-26T05:07:26.928Z,66.72
2018-07-26T05:09:26.902Z,66.79
2018-07-26T05:10:26.887Z,66.77
2018-07-26T05:11:26.920Z,66.79
2018-07-26T05:13:26.791Z,66.77
2018-07-26T05:15:27.021Z,66.63
2018-07-26T05:16:26.996Z,66.83
2018-07-26T05:17:26.934Z,66.83
2018-07-26T05:18:27.029Z,66.81
2018-07-26T05:20:27.064Z,66.78
2018-07-26T05:21:26.854Z,66.83
2018-07-26T05:22:26.846Z,66.71
2018-07-26T05:23:27.002Z,66.64
2018-07-26T05:25:27.071Z,66.87
2018-07-26T05:26:26.878Z,66.97
2018-07-26T05:27:26.837Z,66.72
2018-07-26T05:28:26.888Z,66.79
2018-07-26T05:30:27.085Z,66.73
2018-07-26T05:31:26.861Z,66.78
2018-07-26T05:32:26.949Z,66.88
2018-07-26T05:33:27.051Z,66.71
2018-07-26T05:35:26.855Z,66.58
2018-07-26T05:36:26.967Z,66.72
2018-07-26T05:37:26.997Z,66.81
2018-07-26T05:38:27.000Z,66.83
2018-07-26T05:40:26.729Z,66.57
2018-07-26T05:41:26.881Z,66.95
2018-07-26T05:42:26.887Z,66.7
2018-07-26T05:43:26.897Z,66.64
2018-07-26T05:45:26.922Z,66.64
2018-07-26T05:46:26.837Z,66.52
2018-07-26T05:47:27.002Z,66.6
2018-07-26T05:49:26.785Z,66.64
2018-07-26T05:50:26.815Z,66.8
2018-07-26T05:51:26.961Z,66.51
2018-07-26T05:54:26.865Z,66.63
2018-07-26T05:55:27.060Z,66.63
2018-07-26T05:56:27.035Z,66.7
2018-07-26T05:59:26.901Z,66.66
2018-07-26T06:00:26.849Z,66.81
2018-07-26T06:01:27.035Z,66.9
2018-07-26T06:03:26.967Z,66.91
2018-07-26T06:05:27.130Z,66.7
2018-07-26T06:06:26.923Z,66.73
2018-07-26T06:07:27.163Z,66.69
2018-07-26T06:08:27.071Z,66.95
2018-07-26T06:10:27.141Z,66.91
2018-07-26T06:11:27.064Z,66.87
2018-07-26T06:12:26.944Z,66.67
2018-07-26T06:13:26.981Z,66.78
2018-07-26T06:15:26.916Z,66.79
2018-07-26T06:16:36.956Z,66.88
2018-07-26T06:17:27.316Z,66.8
2018-07-26T06:18:27.055Z,66.66
2018-07-26T06:20:27.168Z,66.65
2018-07-26T06:21:27.002Z,66.67
2018-07-26T06:22:26.940Z,66.69
2018-07-26T06:23:27.169Z,67
2018-07-26T06:25:27.084Z,66.64
2018-07-26T06:26:27.249Z,66.57
2018-07-26T06:27:27.032Z,66.79
2018-07-26T06:28:27.009Z,66.58
2018-07-26T06:30:27.096Z,66.9
2018-07-26T06:32:27.010Z,66.6
2018-07-26T06:33:27.222Z,66.8
2018-07-26T06:34:26.815Z,66.86
2018-07-26T06:35:27.002Z,66.76
2018-07-26T06:38:27.165Z,66.93
2018-07-26T06:39:27.098Z,66.65
2018-07-26T06:40:26.916Z,66.61
2018-07-26T06:41:26.925Z,66.69
2018-07-26T06:43:26.977Z,66.75
2018-07-26T06:44:27.083Z,66.78
2018-07-26T06:45:26.883Z,66.8
2018-07-26T06:46:26.954Z,66.51
2018-07-26T06:48:27.267Z,66.62
2018-07-26T06:49:26.945Z,66.88
2018-07-26T06:50:26.989Z,66.56
2018-07-26T06:51:27.190Z,66.6
2018-07-26T06:53:26.961Z,66.66
2018-07-26T06:54:27.071Z,66.6
2018-07-26T06:55:27.051Z,66.9
2018-07-26T06:56:26.997Z,66.66
2018-07-26T06:58:27.116Z,66.53
2018-07-26T06:59:27.070Z,66.6
2018-07-26T07:00:26.899Z,66.67
2018-07-26T07:01:26.841Z,66.58
2018-07-26T07:03:27.044Z,66.63
2018-07-26T07:04:26.860Z,66.86
2018-07-26T07:05:26.894Z,66.78
2018-07-26T07:06:26.827Z,66.72
2018-07-26T07:08:27.005Z,66.65
2018-07-26T07:09:27.060Z,66.56
2018-07-26T07:10:26.866Z,66.56
2018-07-26T07:11:27.354Z,66.7
2018-07-26T07:13:26.937Z,66.49
2018-07-26T07:14:26.986Z,66.5
2018-07-26T07:15:26.972Z,66.6
2018-07-26T07:16:26.990Z,66.64
2018-07-26T07:18:27.018Z,66.6
2018-07-26T07:19:26.958Z,66.53
2018-07-26T07:20:27.947Z,66.83
2018-07-26T07:21:26.894Z,66.86
2018-07-26T07:23:27.013Z,66.57
2018-07-26T07:24:27.208Z,66.74
2018-07-26T07:25:27.046Z,66.74
2018-07-26T07:26:26.812Z,66.56
2018-07-26T07:28:26.935Z,66.45
2018-07-26T07:29:27.284Z,66.52
2018-07-26T07:30:26.984Z,66.66
2018-07-26T07:31:27.017Z,66.56
2018-07-26T07:33:27.061Z,66.62
2018-07-26T07:34:26.929Z,66.46
2018-07-26T07:35:27.388Z,66.75
2018-07-26T07:38:26.904Z,66.73
2018-07-26T07:39:27.017Z,66.71
2018-07-26T07:40:26.885Z,66.6
2018-07-26T07:41:27.109Z,66.5
2018-07-26T07:43:27.208Z,66.57
2018-07-26T07:45:27.068Z,66.51
2018-07-26T07:46:26.852Z,66.63
2018-07-26T07:47:27.102Z,66.5
2018-07-26T07:48:26.731Z,66.69
2018-07-26T07:50:27.051Z,66.75
2018-07-26T07:51:26.962Z,66.56
2018-07-26T07:52:26.969Z,66.59
2018-07-26T07:53:27.185Z,66.48
2018-07-26T07:56:27.131Z,66.79
2018-07-26T07:57:27.122Z,66.56
2018-07-26T07:58:27.041Z,66.91
2018-07-26T08:01:26.921Z,66.58
2018-07-26T08:02:27.117Z,66.8
2018-07-26T08:03:26.861Z,66.63
2018-07-26T08:04:26.983Z,66.66
2018-07-26T08:07:27.006Z,66.45
2018-07-26T08:08:27.074Z,66.88
2018-07-26T08:09:27.007Z,66.51
2018-07-26T08:12:27.029Z,66.7
2018-07-26T08:13:26.882Z,66.67
2018-07-26T08:14:27.008Z,66.56
2018-07-26T08:15:26.977Z,66.64
2018-07-26T08:17:26.972Z,66.53
2018-07-26T08:18:27.010Z,66.79
2018-07-26T08:19:26.911Z,66.66
2018-07-26T08:20:27.089Z,66.53
2018-07-26T08:22:26.921Z,66.57
2018-07-26T08:23:27.019Z,66.75
2018-07-26T08:24:27.124Z,66.49
2018-07-26T08:25:26.890Z,66.81
2018-07-26T08:27:26.977Z,66.58
2018-07-26T08:28:26.915Z,66.48
2018-07-26T08:30:26.894Z,66.49
2018-07-26T08:31:26.776Z,66.44
2018-07-26T08:32:26.929Z,66.59
2018-07-26T08:34:27.318Z,66.48
2018-07-26T08:35:26.900Z,66.76
2018-07-26T08:36:26.792Z,66.58
2018-07-26T08:37:26.817Z,66.68
2018-07-26T08:39:27.077Z,66.64
2018-07-26T08:40:26.853Z,66.76
2018-07-26T08:41:26.928Z,66.71
2018-07-26T08:42:27.052Z,66.71
2018-07-26T08:44:26.859Z,66.69
2018-07-26T08:45:26.867Z,66.62
2018-07-26T08:46:27.032Z,66.49
2018-07-26T08:47:27.009Z,66.66
2018-07-26T08:49:27.163Z,66.42
2018-07-26T08:50:26.895Z,66.46
2018-07-26T08:51:26.967Z,66.6
2018-07-26T08:52:26.987Z,66.77
2018-07-26T08:54:27.182Z,66.67
2018-07-26T08:56:26.854Z,66.75
2018-07-26T08:57:26.858Z,66.77
2018-07-26T08:58:27.012Z,66.5
2018-07-26T08:59:27.064Z,66.75
2018-07-26T09:01:26.967Z,66.6
2018-07-26T09:02:27.024Z,66.63
2018-07-26T09:03:27.156Z,66.62
2018-07-26T09:04:27.081Z,66.49
2018-07-26T09:06:26.904Z,66.49
2018-07-26T09:07:26.952Z,66.43
2018-07-26T09:08:26.975Z,66.82
2018-07-26T09:09:26.772Z,66.69
2018-07-26T09:11:27.428Z,66.85
2018-07-26T09:12:26.875Z,66.73
2018-07-26T09:13:27.032Z,66.49
2018-07-26T09:14:27.074Z,66.56
2018-07-26T09:16:26.979Z,66.38
2018-07-26T09:17:26.870Z,66.69
2018-07-26T09:18:26.810Z,66.54
2018-07-26T09:19:27.075Z,66.7
2018-07-26T09:23:27.035Z,66.55
2018-07-26T09:24:26.989Z,66.54
2018-07-26T09:25:27.172Z,66.72
2018-07-26T09:26:26.860Z,66.83
2018-07-26T09:28:26.887Z,66.65
2018-07-26T09:29:26.771Z,66.4
2018-07-26T09:30:26.863Z,66.6
2018-07-26T09:31:27.015Z,66.51
2018-07-26T09:33:26.909Z,66.61
2018-07-26T09:34:26.863Z,66.49
2018-07-26T09:35:27.133Z,66.83
2018-07-26T09:36:26.788Z,66.7
2018-07-26T09:40:26.963Z,66.47
2018-07-26T09:41:26.818Z,66.61
2018-07-26T09:42:26.900Z,66.72
2018-07-26T09:44:26.973Z,66.49
2018-07-26T09:45:26.794Z,66.61
2018-07-26T09:46:26.942Z,66.52
2018-07-26T09:47:27.310Z,66.71
2018-07-26T09:49:26.941Z,66.51
2018-07-26T09:50:27.024Z,66.47
2018-07-26T09:52:27.073Z,66.52
2018-07-26T09:53:27.022Z,66.76
2018-07-26T09:54:26.841Z,66.55
2018-07-26T09:55:27.139Z,66.78
2018-07-26T09:57:26.969Z,66.66
2018-07-26T09:59:27.017Z,66.4
2018-07-26T10:00:26.960Z,66.48
2018-07-26T10:01:26.920Z,66.83
2018-07-26T10:02:26.950Z,66.66
2018-07-26T10:04:26.978Z,66.54
2018-07-26T10:05:27.036Z,66.43
2018-07-26T10:06:27.023Z,66.69
2018-07-26T10:07:26.979Z,66.48
2018-07-26T10:10:27.270Z,66.56
2018-07-26T10:11:27.019Z,66.76
2018-07-26T10:12:26.913Z,66.62
2018-07-26T10:13:26.863Z,66.63
2018-07-26T10:15:27.016Z,66.53
2018-07-26T10:16:26.904Z,66.79
2018-07-26T10:17:27.056Z,66.44
2018-07-26T10:18:27.023Z,66.55
2018-07-26T10:20:27.037Z,66.82
2018-07-26T10:21:26.769Z,66.49
2018-07-26T10:22:26.981Z,66.48
2018-07-26T10:23:26.948Z,66.43
2018-07-26T10:26:26.901Z,66.73
2018-07-26T10:27:27.023Z,66.53
2018-07-26T10:28:27.017Z,66.5
2018-07-26T10:30:26.910Z,66.56
2018-07-26T10:32:27.137Z,66.77
2018-07-26T10:33:26.885Z,66.6
2018-07-26T10:34:26.907Z,66.65
2018-07-26T10:37:26.900Z,66.61
2018-07-26T10:38:27.267Z,66.65
2018-07-26T10:39:26.919Z,66.62
2018-07-26T10:41:26.810Z,66.56
2018-07-26T10:42:27.250Z,66.55
2018-07-26T10:43:26.998Z,66.51
2018-07-26T10:44:27.074Z,66.46
2018-07-26T10:46:27.023Z,66.85
2018-07-26T10:47:27.029Z,66.78
2018-07-26T10:49:26.972Z,66.6
2018-07-26T10:50:26.862Z,66.58
2018-07-26T10:52:26.877Z,66.57
2018-07-26T10:53:26.861Z,66.75
2018-07-26T10:54:26.899Z,66.82
2018-07-26T10:56:26.778Z,67.12
2018-07-26T10:57:26.603Z,66.85
2018-07-26T10:58:26.904Z,66.91
2018-07-26T10:59:26.938Z,66.9
2018-07-26T11:01:27.165Z,66.88
2018-07-26T11:03:26.973Z,66.87
2018-07-26T11:04:26.839Z,66.87
2018-07-26T11:05:26.805Z,66.92
2018-07-26T11:06:26.918Z,66.96
2018-07-26T11:09:26.856Z,66.8
2018-07-26T11:10:26.841Z,67.07
2018-07-26T11:11:26.986Z,67.33
2018-07-26T11:12:27.100Z,67.24
2018-07-26T11:14:27.131Z,67.16
2018-07-26T11:15:27.260Z,67.17
2018-07-26T11:16:26.980Z,66.94
2018-07-26T11:17:26.917Z,67.12
2018-07-26T11:19:27.556Z,67.01
2018-07-26T11:20:27.078Z,67.25
2018-07-26T11:21:27.067Z,67.03
2018-07-26T11:22:26.889Z,67.09
2018-07-26T11:24:26.742Z,67.09
2018-07-26T11:25:26.973Z,66.78
2018-07-26T11:26:26.999Z,66.87
2018-07-26T11:29:27.038Z,66.83
2018-07-26T11:30:27.057Z,66.91
2018-07-26T11:31:26.859Z,66.87
2018-07-26T11:32:27.160Z,67.04
2018-07-26T11:34:26.956Z,66.86
2018-07-26T11:35:26.920Z,66.73
2018-07-26T11:36:26.769Z,66.83
2018-07-26T11:37:26.813Z,67.07
2018-07-26T11:39:26.917Z,66.94
2018-07-26T11:40:27.051Z,66.86
2018-07-26T11:41:26.982Z,66.74
2018-07-26T11:44:26.934Z,66.9
2018-07-26T11:45:26.944Z,66.83
2018-07-26T11:46:26.985Z,66.88
2018-07-26T11:47:26.868Z,66.82
2018-07-26T11:49:26.787Z,67.03
2018-07-26T11:51:26.810Z,66.81
2018-07-26T11:52:27.035Z,66.6
2018-07-26T11:53:26.918Z,66.75
2018-07-26T11:54:26.896Z,66.71
2018-07-26T11:56:26.704Z,66.92
2018-07-26T11:57:27.045Z,66.67
2018-07-26T11:58:26.912Z,66.71
2018-07-26T11:59:27.073Z,66.56
2018-07-26T12:03:27.089Z,66.78
2018-07-26T12:04:26.973Z,66.75
2018-07-26T12:05:26.927Z,66.71
2018-07-26T12:06:27.018Z,66.73
2018-07-26T12:08:26.803Z,66.76
2018-07-26T12:10:26.744Z,66.74
2018-07-26T12:11:26.930Z,66.82
2018-07-26T12:13:27.082Z,66.63
2018-07-26T12:14:27.101Z,66.79
2018-07-26T12:15:26.808Z,66.69
2018-07-26T12:16:27.120Z,66.76
2018-07-26T12:18:26.938Z,66.87
2018-07-26T12:19:26.750Z,67.03
2018-07-26T12:20:27.005Z,67.11
2018-07-26T12:21:26.963Z,66.96
2018-07-26T12:23:26.954Z,67.09
2018-07-26T12:25:26.959Z,67.02
2018-07-26T12:26:26.906Z,67
2018-07-26T12:27:26.769Z,66.9
2018-07-26T12:29:26.737Z,66.76
2018-07-26T12:30:26.935Z,66.8
2018-07-26T12:31:27.037Z,66.94
2018-07-26T12:32:26.903Z,66.82
2018-07-26T12:34:26.961Z,66.85
2018-07-26T12:35:26.960Z,66.86
2018-07-26T12:36:26.869Z,66.79
2018-07-26T12:37:27.091Z,66.89
2018-07-26T12:39:26.744Z,67.08
2018-07-26T12:40:26.899Z,66.88
2018-07-26T12:42:26.930Z,66.98
2018-07-26T12:43:26.957Z,67.05
2018-07-26T12:44:26.971Z,66.84
2018-07-26T12:46:27.082Z,67.02
2018-07-26T12:47:27.098Z,66.86
2018-07-26T12:48:26.834Z,67
2018-07-26T12:49:26.725Z,66.88
2018-07-26T12:51:26.706Z,67.04
2018-07-26T12:52:27.096Z,66.95
2018-07-26T12:53:26.675Z,67.22
2018-07-26T12:54:26.705Z,67.15
2018-07-26T12:55:26.873Z,67.14
2018-07-26T12:56:26.844Z,67.2
2018-07-26T12:57:26.843Z,67.06
2018-07-26T12:58:26.755Z,67.18
2018-07-26T12:59:26.843Z,67.24
2018-07-26T13:00:27.091Z,67.28
2018-07-26T13:01:26.959Z,67.13
2018-07-26T13:02:26.800Z,67.23
2018-07-26T13:03:36.804Z,67.28
2018-07-26T13:04:26.842Z,67.04
2018-07-26T13:05:26.925Z,66.9
2018-07-26T13:06:26.914Z,67.22
2018-07-26T13:07:26.951Z,67.04
2018-07-26T13:08:26.712Z,67.21
2018-07-26T13:09:26.894Z,67.24
2018-07-26T13:10:26.767Z,67.09
2018-07-26T13:11:26.767Z,67.11
2018-07-26T13:12:26.890Z,67.15
2018-07-26T13:13:26.683Z,67.15
2018-07-26T13:14:27.027Z,67.08
2018-07-26T13:15:27.014Z,67.25
2018-07-26T13:16:26.892Z,67.32
2018-07-26T13:17:26.913Z,67.21
2018-07-26T13:18:27.013Z,67.2
2018-07-26T13:19:26.859Z,67.06
2018-07-26T13:20:26.922Z,67.24
2018-07-26T13:21:26.659Z,67.16
2018-07-26T13:22:26.935Z,67.14
2018-07-26T13:23:26.765Z,67.16
2018-07-26T13:24:26.967Z,67.2
2018-07-26T13:25:26.871Z,67.24
2018-07-26T13:26:26.920Z,67.19
2018-07-26T13:27:26.792Z,67.06
2018-07-26T13:28:26.993Z,67.16
2018-07-26T13:29:26.709Z,67.1
2018-07-26T13:30:26.699Z,67.14
2018-07-26T13:31:26.937Z,67.2
2018-07-26T13:32:26.871Z,67.17
2018-07-26T13:33:26.952Z,67.24
2018-07-26T13:34:26.923Z,67.22
2018-07-26T13:35:27.114Z,67.03
2018-07-26T13:36:27.009Z,67.17
2018-07-26T13:37:26.851Z,67.24
2018-07-26T13:38:26.760Z,67.07
2018-07-26T13:39:26.702Z,67.2
2018-07-26T13:40:26.862Z,67.15
2018-07-26T13:41:26.880Z,67.08
2018-07-26T13:42:26.731Z,66.91
2018-07-26T13:43:27.361Z,67.26
2018-07-26T13:44:26.989Z,67.13
2018-07-26T13:45:26.808Z,66.93
2018-07-26T13:46:26.720Z,67.06
2018-07-26T13:47:27.002Z,67.11
2018-07-26T13:48:26.678Z,66.99
2018-07-26T13:49:27.005Z,66.91
2018-07-26T13:50:27.061Z,66.99
2018-07-26T13:51:26.784Z,67.07
2018-07-26T13:52:27.113Z,67.12
2018-07-26T13:53:26.890Z,67.12
2018-07-26T13:54:26.865Z,67.03
2018-07-26T13:55:26.758Z,66.76
2018-07-26T13:56:26.791Z,67.08
2018-07-26T13:57:26.821Z,66.94
2018-07-26T13:58:27.023Z,66.91
2018-07-26T13:59:26.825Z,67.04
2018-07-26T14:00:26.670Z,67.06
2018-07-26T14:01:27.015Z,67.21
2018-07-26T14:02:26.935Z,67.86
2018-07-26T14:03:26.948Z,66.98
2018-07-26T14:04:26.976Z,66.84
2018-07-26T14:05:27.188Z,66.85
2018-07-26T14:06:26.652Z,67.1
2018-07-26T14:07:27.020Z,66.93
2018-07-26T14:08:26.615Z,66.84
2018-07-26T14:09:26.746Z,67.1
2018-07-26T14:10:26.843Z,67.1
2018-07-26T14:11:26.827Z,66.87
2018-07-26T14:12:26.933Z,66.91
2018-07-26T14:13:26.862Z,66.92
2018-07-26T14:14:27.045Z,67.02
2018-07-26T14:15:26.976Z,66.87
2018-07-26T14:16:26.750Z,66.86
2018-07-26T14:17:26.727Z,67.12
2018-07-26T14:18:26.979Z,67.14
2018-07-26T14:19:26.768Z,66.89
2018-07-26T14:20:26.720Z,66.94
2018-07-26T14:21:27.146Z,67.12
2018-07-26T14:22:27.183Z,66.96
2018-07-26T14:23:27.174Z,66.89
2018-07-26T14:24:26.668Z,67.02
2018-07-26T14:25:26.841Z,66.79
2018-07-26T14:26:26.809Z,66.9
2018-07-26T14:27:26.857Z,66.89
2018-07-26T14:28:26.847Z,66.97
2018-07-26T14:29:26.860Z,66.88
2018-07-26T14:30:26.656Z,66.91
2018-07-26T14:31:26.861Z,66.88
2018-07-26T14:32:26.824Z,66.89
2018-07-26T14:33:26.758Z,66.82
2018-07-26T14:34:26.894Z,66.88
2018-07-26T14:35:26.825Z,66.76
2018-07-26T14:36:26.945Z,66.87
2018-07-26T14:37:26.869Z,66.9
2018-07-26T14:38:26.925Z,66.87
2018-07-26T14:39:26.927Z,66.94
2018-07-26T14:40:26.804Z,66.92
2018-07-26T14:41:26.910Z,67.15
2018-07-26T14:42:26.742Z,66.86
2018-07-26T14:43:26.836Z,66.93
2018-07-26T14:44:26.883Z,67.02
2018-07-26T14:45:26.821Z,66.79
2018-07-26T14:46:26.760Z,66.72
2018-07-26T14:47:26.861Z,66.95
2018-07-26T14:48:27.008Z,66.86
2018-07-26T14:49:26.711Z,66.84
2018-07-26T14:50:26.796Z,67.05
2018-07-26T14:51:26.846Z,66.89
2018-07-26T14:52:26.837Z,66.82
2018-07-26T14:53:27.115Z,67.02
2018-07-26T14:54:27.228Z,66.9
2018-07-26T14:55:26.681Z,66.95
2018-07-26T14:56:26.834Z,66.91
2018-07-26T14:57:26.872Z,66.86
2018-07-26T14:58:26.708Z,66.84
2018-07-26T14:59:26.919Z,66.71
2018-07-26T15:00:26.771Z,66.86
2018-07-26T15:01:26.739Z,66.87
2018-07-26T15:02:27.009Z,66.97
2018-07-26T15:03:26.722Z,66.87
2018-07-26T15:04:26.965Z,66.94
2018-07-26T15:05:26.831Z,66.75
2018-07-26T15:06:26.859Z,66.67
2018-07-26T15:07:26.799Z,66.8
2018-07-26T15:08:26.766Z,67.08
2018-07-26T15:09:26.868Z,66.8
2018-07-26T15:10:27.030Z,66.93
2018-07-26T15:11:27.060Z,66.64
2018-07-26T15:12:27.204Z,66.8
2018-07-26T15:13:26.542Z,66.76
2018-07-26T15:14:26.809Z,66.78
2018-07-26T15:15:26.705Z,66.84
2018-07-26T15:16:26.778Z,66.88
2018-07-26T15:17:26.771Z,66.82
2018-07-26T15:18:26.720Z,66.84
2018-07-26T15:19:26.732Z,66.74
2018-07-26T15:20:26.878Z,66.91
2018-07-26T15:21:26.802Z,66.67
2018-07-26T15:22:26.993Z,66.97
2018-07-26T15:23:27.009Z,66.8
2018-07-26T15:24:27.208Z,66.68
2018-07-26T15:25:26.925Z,66.91
2018-07-26T15:26:26.902Z,66.88
2018-07-26T15:27:26.782Z,66.78
2018-07-26T15:28:27.096Z,66.87
2018-07-26T15:29:26.773Z,66.64
2018-07-26T15:30:26.866Z,66.82
2018-07-26T15:31:26.882Z,66.99
2018-07-26T15:32:27.047Z,66.85
2018-07-26T15:33:28.026Z,66.87
2018-07-26T15:34:26.818Z,66.72
2018-07-26T15:35:26.970Z,66.87
2018-07-26T15:36:26.755Z,66.72
2018-07-26T15:37:26.962Z,66.88
2018-07-26T15:38:26.922Z,66.91
2018-07-26T15:39:26.858Z,66.84
2018-07-26T15:40:26.911Z,67.02
2018-07-26T15:41:26.966Z,67.07
2018-07-26T15:42:26.758Z,66.95
2018-07-26T15:43:26.764Z,66.61
2018-07-26T15:44:26.663Z,67.02
2018-07-26T15:45:26.708Z,66.81
2018-07-26T15:46:26.794Z,66.61
2018-07-26T15:47:26.874Z,66.84
2018-07-26T15:48:26.790Z,66.7
2018-07-26T15:49:26.729Z,67.02
2018-07-26T15:50:26.751Z,66.96
2018-07-26T15:51:26.844Z,66.84
2018-07-26T15:52:26.978Z,66.65
2018-07-26T15:53:26.762Z,66.94
2018-07-26T15:54:26.614Z,66.78
2018-07-26T15:55:26.681Z,66.75
2018-07-26T15:56:26.702Z,66.99
2018-07-26T15:57:26.772Z,66.91
2018-07-26T15:58:26.706Z,66.83
2018-07-26T15:59:26.872Z,67
2018-07-26T16:00:26.668Z,66.71
2018-07-26T16:01:27.077Z,66.95
2018-07-26T16:02:26.690Z,66.87
2018-07-26T16:03:27.135Z,66.78
2018-07-26T16:04:26.686Z,66.74
2018-07-26T16:05:26.748Z,67
2018-07-26T16:06:26.886Z,66.94
2018-07-26T16:07:26.965Z,66.72
2018-07-26T16:08:26.849Z,67.05
2018-07-26T16:09:27.012Z,66.74
2018-07-26T16:10:26.923Z,67.02
2018-07-26T16:11:26.986Z,66.79
2018-07-26T16:12:27.022Z,66.88
2018-07-26T16:13:26.825Z,66.78
2018-07-26T16:14:26.829Z,67.01
2018-07-26T16:15:27.008Z,66.8
2018-07-26T16:16:26.827Z,67.03
2018-07-26T16:17:26.932Z,66.74
2018-07-26T16:18:27.089Z,66.84
2018-07-26T16:19:27.112Z,66.66